Blanch, North Carolina
Current Conditions -  °F | °C
As of 12:53 PM on Friday 19 Dec 2014 (Local Time) from KDAN Reporting Station
Clear Clear  
Wind Chill: 45°   Ceiling: Unl
Heat Index: 49°   Visibility: 10mi
Dew Point: 24°   Wind: 8mph
Humidity: 38%   Direction: 310°NW
Pressure: 30.13"   Gusts: NA
Location:  36.51°N, 79.3°W
Report Text: KDAN 191753Z AUTO 31007KT 10SM CLR 09/M04 A3013 RMK AO2 SLP199 T00941044 10094 20000 58021
Loading
Personal Weather Stations






























Interactive Weather Map New forecast layout! Learn more

10-Day Weather Forecast

Advertisements
Track Severe Weather on mobile